sensor_id;sensor_type;location;lat;lon;timestamp;P1;durP1;ratioP1;P2;durP2;ratioP2
35693;SDS011;21812;55.536;37.664;2023-12-22T00:02:05;2.67;;;2.47;;
35693;SDS011;21812;55.536;37.664;2023-12-22T00:04:30;3.90;;;1.75;;
35693;SDS011;21812;55.536;37.664;2023-12-22T00:06:56;2.83;;;1.85;;
35693;SDS011;21812;55.536;37.664;2023-12-22T00:09:21;3.38;;;2.42;;
35693;SDS011;21812;55.536;37.664;2023-12-22T00:11:47;2.47;;;2.20;;
35693;SDS011;21812;55.536;37.664;2023-12-22T00:14:13;4.22;;;2.60;;
35693;SDS011;21812;55.536;37.664;2023-12-22T00:16:39;3.17;;;2.00;;
35693;SDS011;21812;55.536;37.664;2023-12-22T00:19:04;2.70;;;2.10;;
35693;SDS011;21812;55.536;37.664;2023-12-22T00:21:30;2.30;;;1.40;;
35693;SDS011;21812;55.536;37.664;2023-12-22T00:23:57;2.63;;;1.60;;
35693;SDS011;21812;55.536;37.664;2023-12-22T00:26:23;2.33;;;1.88;;
35693;SDS011;21812;55.536;37.664;2023-12-22T00:28:49;2.95;;;1.70;;
35693;SDS011;21812;55.536;37.664;2023-12-22T00:31:14;3.55;;;2.28;;
35693;SDS011;21812;55.536;37.664;2023-12-22T00:33:40;2.40;;;2.03;;
35693;SDS011;21812;55.536;37.664;2023-12-22T00:36:06;2.10;;;1.65;;
35693;SDS011;21812;55.536;37.664;2023-12-22T00:38:33;3.10;;;1.90;;
35693;SDS011;21812;55.536;37.664;2023-12-22T00:40:59;2.50;;;2.20;;
35693;SDS011;21812;55.536;37.664;2023-12-22T00:43:25;5.72;;;2.83;;
35693;SDS011;21812;55.536;37.664;2023-12-22T00:45:50;3.33;;;2.10;;
35693;SDS011;21812;55.536;37.664;2023-12-22T00:48:16;3.83;;;2.58;;
35693;SDS011;21812;55.536;37.664;2023-12-22T00:50:42;1.88;;;1.35;;
35693;SDS011;21812;55.536;37.664;2023-12-22T00:53:07;5.00;;;2.95;;
35693;SDS011;21812;55.536;37.664;2023-12-22T00:55:33;4.10;;;2.97;;
35693;SDS011;21812;55.536;37.664;2023-12-22T00:57:59;4.35;;;2.42;;
35693;SDS011;21812;55.536;37.664;2023-12-22T01:00:24;4.60;;;3.08;;
35693;SDS011;21812;55.536;37.664;2023-12-22T01:02:50;4.55;;;3.40;;
35693;SDS011;21812;55.536;37.664;2023-12-22T01:05:16;3.42;;;2.78;;
35693;SDS011;21812;55.536;37.664;2023-12-22T01:07:41;4.90;;;2.83;;
35693;SDS011;21812;55.536;37.664;2023-12-22T01:10:07;4.38;;;3.10;;
35693;SDS011;21812;55.536;37.664;2023-12-22T01:12:34;5.63;;;4.25;;
35693;SDS011;21812;55.536;37.664;2023-12-22T01:15:00;13.43;;;8.35;;
35693;SDS011;21812;55.536;37.664;2023-12-22T01:17:25;6.68;;;4.47;;
35693;SDS011;21812;55.536;37.664;2023-12-22T01:19:51;7.10;;;3.70;;
35693;SDS011;21812;55.536;37.664;2023-12-22T01:22:17;6.20;;;3.75;;
35693;SDS011;21812;55.536;37.664;2023-12-22T01:24:44;4.00;;;2.88;;
35693;SDS011;21812;55.536;37.664;2023-12-22T01:27:11;3.00;;;2.58;;
35693;SDS011;21812;55.536;37.664;2023-12-22T01:29:37;3.25;;;2.92;;
35693;SDS011;21812;55.536;37.664;2023-12-22T01:32:03;5.45;;;3.08;;
35693;SDS011;21812;55.536;37.664;2023-12-22T01:34:29;3.47;;;3.17;;
35693;SDS011;21812;55.536;37.664;2023-12-22T01:36:55;4.00;;;2.85;;
35693;SDS011;21812;55.536;37.664;2023-12-22T01:39:20;5.05;;;3.53;;
35693;SDS011;21812;55.536;37.664;2023-12-22T01:41:46;3.22;;;2.50;;
35693;SDS011;21812;55.536;37.664;2023-12-22T01:44:12;3.38;;;2.60;;
35693;SDS011;21812;55.536;37.664;2023-12-22T01:46:38;4.50;;;2.58;;
35693;SDS011;21812;55.536;37.664;2023-12-22T01:49:04;3.35;;;2.65;;
35693;SDS011;21812;55.536;37.664;2023-12-22T01:51:32;3.97;;;2.85;;
35693;SDS011;21812;55.536;37.664;2023-12-22T01:54:02;4.53;;;3.22;;
35693;SDS011;21812;55.536;37.664;2023-12-22T01:56:29;6.28;;;3.10;;
35693;SDS011;21812;55.536;37.664;2023-12-22T01:58:55;3.13;;;2.40;;
35693;SDS011;21812;55.536;37.664;2023-12-22T02:01:24;6.75;;;3.47;;
35693;SDS011;21812;55.536;37.664;2023-12-22T02:03:51;4.47;;;2.28;;
35693;SDS011;21812;55.536;37.664;2023-12-22T02:06:18;5.10;;;3.30;;
35693;SDS011;21812;55.536;37.664;2023-12-22T02:08:46;6.28;;;3.40;;
35693;SDS011;21812;55.536;37.664;2023-12-22T02:11:13;3.03;;;2.22;;
35693;SDS011;21812;55.536;37.664;2023-12-22T02:13:39;2.83;;;2.10;;
35693;SDS011;21812;55.536;37.664;2023-12-22T02:19:12;3.08;;;2.63;;
35693;SDS011;21812;55.536;37.664;2023-12-22T02:22:04;3.47;;;2.55;;
35693;SDS011;21812;55.536;37.664;2023-12-22T02:24:31;3.17;;;2.38;;
35693;SDS011;21812;55.536;37.664;2023-12-22T02:29:57;4.18;;;2.17;;
35693;SDS011;21812;55.536;37.664;2023-12-22T02:32:35;4.35;;;2.67;;
35693;SDS011;21812;55.536;37.664;2023-12-22T02:35:05;3.28;;;2.55;;
35693;SDS011;21812;55.536;37.664;2023-12-22T02:37:35;3.20;;;2.70;;
35693;SDS011;21812;55.536;37.664;2023-12-22T02:40:02;3.03;;;1.92;;
35693;SDS011;21812;55.536;37.664;2023-12-22T02:42:30;3.25;;;2.85;;
35693;SDS011;21812;55.536;37.664;2023-12-22T02:44:57;2.55;;;2.03;;
35693;SDS011;21812;55.536;37.664;2023-12-22T02:47:23;2.28;;;1.88;;
35693;SDS011;21812;55.536;37.664;2023-12-22T02:49:49;3.75;;;3.35;;
35693;SDS011;21812;55.536;37.664;2023-12-22T02:52:15;3.35;;;2.65;;
35693;SDS011;21812;55.536;37.664;2023-12-22T02:54:41;4.03;;;3.13;;
35693;SDS011;21812;55.536;37.664;2023-12-22T02:57:07;3.38;;;3.08;;
35693;SDS011;21812;55.536;37.664;2023-12-22T02:59:33;3.35;;;2.17;;
35693;SDS011;21812;55.536;37.664;2023-12-22T03:01:59;3.65;;;2.35;;
35693;SDS011;21812;55.536;37.664;2023-12-22T03:04:25;3.60;;;1.90;;
35693;SDS011;21812;55.536;37.664;2023-12-22T03:06:51;3.53;;;2.47;;
35693;SDS011;21812;55.536;37.664;2023-12-22T03:09:17;3.47;;;2.60;;
35693;SDS011;21812;55.536;37.664;2023-12-22T03:11:42;3.97;;;3.05;;
35693;SDS011;21812;55.536;37.664;2023-12-22T03:14:08;9.70;;;2.72;;
35693;SDS011;21812;55.536;37.664;2023-12-22T03:16:35;2.58;;;2.05;;
35693;SDS011;21812;55.536;37.664;2023-12-22T03:19:01;8.73;;;2.60;;
35693;SDS011;21812;55.536;37.664;2023-12-22T03:21:26;4.13;;;2.92;;
35693;SDS011;21812;55.536;37.664;2023-12-22T03:23:52;3.45;;;2.90;;
35693;SDS011;21812;55.536;37.664;2023-12-22T03:26:18;3.38;;;2.42;;
35693;SDS011;21812;55.536;37.664;2023-12-22T03:28:44;7.88;;;3.22;;
35693;SDS011;21812;55.536;37.664;2023-12-22T03:31:09;3.03;;;1.98;;
35693;SDS011;21812;55.536;37.664;2023-12-22T03:33:35;3.38;;;3.08;;
35693;SDS011;21812;55.536;37.664;2023-12-22T03:36:01;2.97;;;2.15;;
35693;SDS011;21812;55.536;37.664;2023-12-22T03:38:26;15.52;;;4.25;;
35693;SDS011;21812;55.536;37.664;2023-12-22T03:40:52;22.42;;;4.40;;
35693;SDS011;21812;55.536;37.664;2023-12-22T03:43:18;25.13;;;4.65;;
35693;SDS011;21812;55.536;37.664;2023-12-22T03:45:43;13.13;;;3.90;;
35693;SDS011;21812;55.536;37.664;2023-12-22T03:48:09;5.07;;;3.47;;
35693;SDS011;21812;55.536;37.664;2023-12-22T03:50:35;11.00;;;3.13;;
35693;SDS011;21812;55.536;37.664;2023-12-22T03:53:00;8.77;;;3.00;;
35693;SDS011;21812;55.536;37.664;2023-12-22T03:55:26;8.80;;;4.10;;
35693;SDS011;21812;55.536;37.664;2023-12-22T03:57:52;6.55;;;2.85;;
35693;SDS011;21812;55.536;37.664;2023-12-22T04:00:17;6.35;;;3.35;;
35693;SDS011;21812;55.536;37.664;2023-12-22T04:02:43;5.38;;;2.90;;
35693;SDS011;21812;55.536;37.664;2023-12-22T04:07:53;4.90;;;3.33;;
35693;SDS011;21812;55.536;37.664;2023-12-22T04:10:19;5.78;;;3.95;;
35693;SDS011;21812;55.536;37.664;2023-12-22T04:12:45;7.20;;;2.85;;
35693;SDS011;21812;55.536;37.664;2023-12-22T04:15:10;4.32;;;3.40;;
35693;SDS011;21812;55.536;37.664;2023-12-22T04:17:36;4.13;;;2.78;;
35693;SDS011;21812;55.536;37.664;2023-12-22T04:20:02;4.25;;;2.97;;
35693;SDS011;21812;55.536;37.664;2023-12-22T04:22:30;4.43;;;2.97;;
35693;SDS011;21812;55.536;37.664;2023-12-22T04:24:55;4.05;;;3.13;;
35693;SDS011;21812;55.536;37.664;2023-12-22T04:27:21;4.68;;;3.05;;
35693;SDS011;21812;55.536;37.664;2023-12-22T04:29:47;5.00;;;4.15;;
35693;SDS011;21812;55.536;37.664;2023-12-22T04:32:13;6.95;;;4.95;;
35693;SDS011;21812;55.536;37.664;2023-12-22T04:34:38;5.35;;;4.60;;
35693;SDS011;21812;55.536;37.664;2023-12-22T04:37:04;4.93;;;3.83;;
35693;SDS011;21812;55.536;37.664;2023-12-22T04:39:29;7.55;;;5.05;;
35693;SDS011;21812;55.536;37.664;2023-12-22T04:41:55;6.90;;;4.43;;
35693;SDS011;21812;55.536;37.664;2023-12-22T04:44:21;6.35;;;4.70;;
35693;SDS011;21812;55.536;37.664;2023-12-22T04:46:46;6.45;;;4.40;;
35693;SDS011;21812;55.536;37.664;2023-12-22T04:49:12;6.78;;;4.43;;
35693;SDS011;21812;55.536;37.664;2023-12-22T04:51:38;6.63;;;4.80;;
35693;SDS011;21812;55.536;37.664;2023-12-22T04:54:03;6.38;;;3.95;;
35693;SDS011;21812;55.536;37.664;2023-12-22T04:56:29;3.60;;;2.80;;
35693;SDS011;21812;55.536;37.664;2023-12-22T04:58:55;6.15;;;5.15;;
35693;SDS011;21812;55.536;37.664;2023-12-22T05:01:20;5.47;;;4.28;;
35693;SDS011;21812;55.536;37.664;2023-12-22T05:03:46;6.97;;;6.25;;
35693;SDS011;21812;55.536;37.664;2023-12-22T05:06:12;5.43;;;4.68;;
35693;SDS011;21812;55.536;37.664;2023-12-22T05:08:37;6.30;;;3.45;;
35693;SDS011;21812;55.536;37.664;2023-12-22T05:11:03;8.15;;;6.15;;
35693;SDS011;21812;55.536;37.664;2023-12-22T05:13:29;7.53;;;5.30;;
35693;SDS011;21812;55.536;37.664;2023-12-22T05:15:54;6.32;;;4.22;;
35693;SDS011;21812;55.536;37.664;2023-12-22T05:18:20;5.00;;;3.85;;
35693;SDS011;21812;55.536;37.664;2023-12-22T05:20:46;6.05;;;4.38;;
35693;SDS011;21812;55.536;37.664;2023-12-22T05:23:12;5.35;;;4.25;;
35693;SDS011;21812;55.536;37.664;2023-12-22T05:25:37;6.03;;;4.75;;
35693;SDS011;21812;55.536;37.664;2023-12-22T05:28:03;5.15;;;3.65;;
35693;SDS011;21812;55.536;37.664;2023-12-22T05:30:29;7.28;;;5.40;;
35693;SDS011;21812;55.536;37.664;2023-12-22T05:32:54;6.65;;;4.70;;
35693;SDS011;21812;55.536;37.664;2023-12-22T05:35:20;4.70;;;3.53;;
35693;SDS011;21812;55.536;37.664;2023-12-22T05:37:46;8.50;;;4.57;;
35693;SDS011;21812;55.536;37.664;2023-12-22T05:40:13;5.63;;;4.13;;
35693;SDS011;21812;55.536;37.664;2023-12-22T05:42:39;7.20;;;6.10;;
35693;SDS011;21812;55.536;37.664;2023-12-22T05:45:05;11.93;;;5.75;;
35693;SDS011;21812;55.536;37.664;2023-12-22T05:47:32;4.32;;;3.45;;
35693;SDS011;21812;55.536;37.664;2023-12-22T05:49:58;5.60;;;3.95;;
35693;SDS011;21812;55.536;37.664;2023-12-22T05:52:24;4.70;;;3.33;;
35693;SDS011;21812;55.536;37.664;2023-12-22T05:54:50;5.53;;;3.15;;
35693;SDS011;21812;55.536;37.664;2023-12-22T05:57:16;4.93;;;4.00;;
35693;SDS011;21812;55.536;37.664;2023-12-22T05:59:42;6.55;;;4.22;;
35693;SDS011;21812;55.536;37.664;2023-12-22T06:02:08;5.60;;;4.45;;
35693;SDS011;21812;55.536;37.664;2023-12-22T06:04:34;5.20;;;4.07;;
35693;SDS011;21812;55.536;37.664;2023-12-22T06:07:00;6.22;;;4.43;;
35693;SDS011;21812;55.536;37.664;2023-12-22T06:09:26;3.70;;;3.03;;
35693;SDS011;21812;55.536;37.664;2023-12-22T06:11:51;4.50;;;3.67;;
35693;SDS011;21812;55.536;37.664;2023-12-22T06:14:17;6.68;;;3.35;;
35693;SDS011;21812;55.536;37.664;2023-12-22T06:16:43;4.80;;;3.58;;
35693;SDS011;21812;55.536;37.664;2023-12-22T06:19:09;5.30;;;3.47;;
35693;SDS011;21812;55.536;37.664;2023-12-22T06:21:38;5.05;;;3.50;;
35693;SDS011;21812;55.536;37.664;2023-12-22T06:24:04;4.28;;;3.50;;
35693;SDS011;21812;55.536;37.664;2023-12-22T06:26:31;4.00;;;3.60;;
35693;SDS011;21812;55.536;37.664;2023-12-22T06:28:56;5.60;;;3.00;;
35693;SDS011;21812;55.536;37.664;2023-12-22T06:31:22;6.85;;;3.22;;
35693;SDS011;21812;55.536;37.664;2023-12-22T06:33:48;6.45;;;4.10;;
35693;SDS011;21812;55.536;37.664;2023-12-22T06:36:22;4.35;;;2.92;;
35693;SDS011;21812;55.536;37.664;2023-12-22T06:38:49;3.72;;;3.40;;
35693;SDS011;21812;55.536;37.664;2023-12-22T06:41:22;5.32;;;4.75;;
35693;SDS011;21812;55.536;37.664;2023-12-22T06:43:52;6.65;;;4.22;;
35693;SDS011;21812;55.536;37.664;2023-12-22T06:46:19;4.30;;;3.28;;
35693;SDS011;21812;55.536;37.664;2023-12-22T06:48:47;4.57;;;3.85;;
35693;SDS011;21812;55.536;37.664;2023-12-22T06:51:23;7.45;;;3.17;;
35693;SDS011;21812;55.536;37.664;2023-12-22T06:53:51;5.57;;;4.43;;
35693;SDS011;21812;55.536;37.664;2023-12-22T06:56:21;4.30;;;3.65;;
35693;SDS011;21812;55.536;37.664;2023-12-22T06:58:51;15.98;;;5.95;;
35693;SDS011;21812;55.536;37.664;2023-12-22T07:01:36;9.38;;;3.65;;
35693;SDS011;21812;55.536;37.664;2023-12-22T07:04:02;6.35;;;4.05;;
35693;SDS011;21812;55.536;37.664;2023-12-22T07:06:30;8.90;;;3.85;;
35693;SDS011;21812;55.536;37.664;2023-12-22T07:11:43;6.25;;;3.15;;
35693;SDS011;21812;55.536;37.664;2023-12-22T07:14:10;5.85;;;3.05;;
35693;SDS011;21812;55.536;37.664;2023-12-22T07:16:35;4.68;;;2.55;;
35693;SDS011;21812;55.536;37.664;2023-12-22T07:19:02;4.97;;;3.75;;
35693;SDS011;21812;55.536;37.664;2023-12-22T07:21:28;6.93;;;2.92;;
35693;SDS011;21812;55.536;37.664;2023-12-22T07:23:54;9.25;;;2.70;;
35693;SDS011;21812;55.536;37.664;2023-12-22T07:26:20;5.78;;;3.40;;
35693;SDS011;21812;55.536;37.664;2023-12-22T07:28:49;7.63;;;3.85;;
35693;SDS011;21812;55.536;37.664;2023-12-22T07:31:15;9.48;;;4.05;;
35693;SDS011;21812;55.536;37.664;2023-12-22T07:33:41;8.30;;;4.57;;
35693;SDS011;21812;55.536;37.664;2023-12-22T07:36:07;6.07;;;4.22;;
35693;SDS011;21812;55.536;37.664;2023-12-22T07:38:33;8.80;;;5.18;;
35693;SDS011;21812;55.536;37.664;2023-12-22T07:40:59;11.20;;;4.13;;
35693;SDS011;21812;55.536;37.664;2023-12-22T07:43:25;6.85;;;3.95;;
35693;SDS011;21812;55.536;37.664;2023-12-22T07:45:51;4.68;;;3.47;;
35693;SDS011;21812;55.536;37.664;2023-12-22T07:48:17;6.68;;;3.80;;
35693;SDS011;21812;55.536;37.664;2023-12-22T07:50:43;5.00;;;3.47;;
35693;SDS011;21812;55.536;37.664;2023-12-22T07:53:10;5.60;;;3.75;;
35693;SDS011;21812;55.536;37.664;2023-12-22T07:55:36;11.48;;;5.45;;
35693;SDS011;21812;55.536;37.664;2023-12-22T07:58:04;6.35;;;4.75;;
35693;SDS011;21812;55.536;37.664;2023-12-22T08:00:30;7.63;;;4.57;;
35693;SDS011;21812;55.536;37.664;2023-12-22T08:02:55;6.93;;;3.83;;
35693;SDS011;21812;55.536;37.664;2023-12-22T08:05:21;6.47;;;4.35;;
35693;SDS011;21812;55.536;37.664;2023-12-22T08:07:47;7.35;;;4.75;;
35693;SDS011;21812;55.536;37.664;2023-12-22T08:10:12;10.02;;;5.18;;
35693;SDS011;21812;55.536;37.664;2023-12-22T08:12:38;11.48;;;4.03;;
35693;SDS011;21812;55.536;37.664;2023-12-22T08:15:04;5.68;;;4.47;;
35693;SDS011;21812;55.536;37.664;2023-12-22T08:17:31;7.72;;;4.18;;
35693;SDS011;21812;55.536;37.664;2023-12-22T08:19:57;8.77;;;4.15;;
35693;SDS011;21812;55.536;37.664;2023-12-22T08:22:23;4.65;;;3.22;;
35693;SDS011;21812;55.536;37.664;2023-12-22T08:24:49;6.90;;;4.78;;
35693;SDS011;21812;55.536;37.664;2023-12-22T08:27:15;7.13;;;4.18;;
35693;SDS011;21812;55.536;37.664;2023-12-22T08:29:40;6.35;;;3.83;;
35693;SDS011;21812;55.536;37.664;2023-12-22T08:32:06;7.65;;;4.30;;
35693;SDS011;21812;55.536;37.664;2023-12-22T08:34:32;6.53;;;5.00;;
35693;SDS011;21812;55.536;37.664;2023-12-22T08:36:58;6.35;;;4.90;;
35693;SDS011;21812;55.536;37.664;2023-12-22T08:39:23;7.78;;;3.88;;
35693;SDS011;21812;55.536;37.664;2023-12-22T08:41:52;6.53;;;5.00;;
35693;SDS011;21812;55.536;37.664;2023-12-22T08:44:18;9.65;;;4.55;;
35693;SDS011;21812;55.536;37.664;2023-12-22T08:46:44;9.52;;;5.88;;
35693;SDS011;21812;55.536;37.664;2023-12-22T08:49:10;9.85;;;6.25;;
35693;SDS011;21812;55.536;37.664;2023-12-22T08:51:36;8.43;;;5.03;;
35693;SDS011;21812;55.536;37.664;2023-12-22T08:54:02;8.13;;;6.25;;
35693;SDS011;21812;55.536;37.664;2023-12-22T08:56:30;9.35;;;7.72;;
35693;SDS011;21812;55.536;37.664;2023-12-22T08:58:55;10.38;;;7.82;;
35693;SDS011;21812;55.536;37.664;2023-12-22T09:01:24;10.27;;;7.53;;
35693;SDS011;21812;55.536;37.664;2023-12-22T09:03:50;9.70;;;8.10;;
35693;SDS011;21812;55.536;37.664;2023-12-22T09:06:16;5.65;;;4.35;;
35693;SDS011;21812;55.536;37.664;2023-12-22T09:08:44;9.57;;;6.35;;
35693;SDS011;21812;55.536;37.664;2023-12-22T09:11:13;12.60;;;9.05;;
35693;SDS011;21812;55.536;37.664;2023-12-22T09:13:41;14.45;;;8.93;;
35693;SDS011;21812;55.536;37.664;2023-12-22T09:16:07;13.63;;;7.93;;
35693;SDS011;21812;55.536;37.664;2023-12-22T09:18:33;10.90;;;7.78;;
35693;SDS011;21812;55.536;37.664;2023-12-22T09:20:59;8.55;;;7.00;;
35693;SDS011;21812;55.536;37.664;2023-12-22T09:23:26;10.93;;;6.70;;
35693;SDS011;21812;55.536;37.664;2023-12-22T09:25:52;9.27;;;5.90;;
35693;SDS011;21812;55.536;37.664;2023-12-22T09:28:18;7.65;;;6.88;;
35693;SDS011;21812;55.536;37.664;2023-12-22T09:30:43;8.43;;;6.22;;
35693;SDS011;21812;55.536;37.664;2023-12-22T09:33:09;6.45;;;5.32;;
35693;SDS011;21812;55.536;37.664;2023-12-22T09:35:36;12.38;;;7.30;;
35693;SDS011;21812;55.536;37.664;2023-12-22T09:38:02;12.30;;;7.18;;
35693;SDS011;21812;55.536;37.664;2023-12-22T09:40:28;8.32;;;4.60;;
35693;SDS011;21812;55.536;37.664;2023-12-22T09:42:55;9.10;;;5.65;;
35693;SDS011;21812;55.536;37.664;2023-12-22T09:45:23;9.82;;;6.28;;
35693;SDS011;21812;55.536;37.664;2023-12-22T09:47:50;10.40;;;6.70;;
35693;SDS011;21812;55.536;37.664;2023-12-22T09:50:19;14.88;;;7.10;;
35693;SDS011;21812;55.536;37.664;2023-12-22T09:52:46;14.98;;;8.70;;
35693;SDS011;21812;55.536;37.664;2023-12-22T09:55:12;14.43;;;8.80;;
35693;SDS011;21812;55.536;37.664;2023-12-22T09:57:39;11.13;;;7.50;;
35693;SDS011;21812;55.536;37.664;2023-12-22T10:00:06;14.65;;;7.43;;
35693;SDS011;21812;55.536;37.664;2023-12-22T10:02:34;13.23;;;7.63;;
35693;SDS011;21812;55.536;37.664;2023-12-22T10:05:01;10.02;;;6.55;;
35693;SDS011;21812;55.536;37.664;2023-12-22T10:07:30;11.20;;;6.80;;
35693;SDS011;21812;55.536;37.664;2023-12-22T10:09:59;10.10;;;5.82;;
35693;SDS011;21812;55.536;37.664;2023-12-22T10:12:29;12.65;;;5.28;;
35693;SDS011;21812;55.536;37.664;2023-12-22T10:14:59;10.07;;;5.55;;
35693;SDS011;21812;55.536;37.664;2023-12-22T10:17:28;8.30;;;5.38;;
35693;SDS011;21812;55.536;37.664;2023-12-22T10:19:54;7.45;;;4.60;;
35693;SDS011;21812;55.536;37.664;2023-12-22T10:22:20;11.95;;;5.05;;
35693;SDS011;21812;55.536;37.664;2023-12-22T10:24:49;8.45;;;5.65;;
35693;SDS011;21812;55.536;37.664;2023-12-22T10:27:18;5.78;;;4.38;;
35693;SDS011;21812;55.536;37.664;2023-12-22T10:29:55;6.50;;;4.35;;
35693;SDS011;21812;55.536;37.664;2023-12-22T10:34:48;7.18;;;4.95;;
35693;SDS011;21812;55.536;37.664;2023-12-22T10:37:14;5.90;;;4.65;;
35693;SDS011;21812;55.536;37.664;2023-12-22T10:39:40;9.77;;;4.55;;
35693;SDS011;21812;55.536;37.664;2023-12-22T10:42:07;5.53;;;3.67;;
35693;SDS011;21812;55.536;37.664;2023-12-22T10:44:33;8.82;;;5.88;;
35693;SDS011;21812;55.536;37.664;2023-12-22T10:47:00;5.55;;;3.83;;
35693;SDS011;21812;55.536;37.664;2023-12-22T10:49:25;4.45;;;3.85;;
35693;SDS011;21812;55.536;37.664;2023-12-22T10:51:52;6.00;;;4.03;;
35693;SDS011;21812;55.536;37.664;2023-12-22T10:54:18;3.88;;;3.47;;
35693;SDS011;21812;55.536;37.664;2023-12-22T10:56:44;6.47;;;4.18;;
35693;SDS011;21812;55.536;37.664;2023-12-22T10:59:10;5.85;;;4.10;;
35693;SDS011;21812;55.536;37.664;2023-12-22T11:01:37;4.38;;;3.30;;
35693;SDS011;21812;55.536;37.664;2023-12-22T11:04:07;5.25;;;3.50;;
35693;SDS011;21812;55.536;37.664;2023-12-22T11:06:35;3.85;;;3.47;;
35693;SDS011;21812;55.536;37.664;2023-12-22T11:09:09;4.85;;;3.38;;
35693;SDS011;21812;55.536;37.664;2023-12-22T11:11:37;4.70;;;4.13;;
35693;SDS011;21812;55.536;37.664;2023-12-22T11:14:04;5.13;;;4.00;;
35693;SDS011;21812;55.536;37.664;2023-12-22T11:16:31;5.35;;;4.07;;
35693;SDS011;21812;55.536;37.664;2023-12-22T11:18:59;7.25;;;4.07;;
35693;SDS011;21812;55.536;37.664;2023-12-22T11:21:29;5.70;;;4.20;;
35693;SDS011;21812;55.536;37.664;2023-12-22T11:23:55;5.22;;;3.80;;
35693;SDS011;21812;55.536;37.664;2023-12-22T11:26:23;3.65;;;2.95;;
35693;SDS011;21812;55.536;37.664;2023-12-22T11:28:50;7.15;;;3.80;;
35693;SDS011;21812;55.536;37.664;2023-12-22T11:31:17;10.57;;;4.28;;
35693;SDS011;21812;55.536;37.664;2023-12-22T11:33:45;5.35;;;3.90;;
35693;SDS011;21812;55.536;37.664;2023-12-22T11:36:15;6.38;;;4.72;;
35693;SDS011;21812;55.536;37.664;2023-12-22T11:38:42;6.47;;;3.78;;
35693;SDS011;21812;55.536;37.664;2023-12-22T11:41:09;6.18;;;4.10;;
35693;SDS011;21812;55.536;37.664;2023-12-22T11:43:38;3.97;;;3.33;;
35693;SDS011;21812;55.536;37.664;2023-12-22T11:46:06;6.63;;;4.15;;
35693;SDS011;21812;55.536;37.664;2023-12-22T11:48:32;4.32;;;3.28;;
35693;SDS011;21812;55.536;37.664;2023-12-22T11:50:58;4.88;;;3.50;;
35693;SDS011;21812;55.536;37.664;2023-12-22T11:53:25;3.25;;;2.90;;
35693;SDS011;21812;55.536;37.664;2023-12-22T11:58:42;4.50;;;3.20;;
35693;SDS011;21812;55.536;37.664;2023-12-22T12:01:16;4.20;;;2.80;;
35693;SDS011;21812;55.536;37.664;2023-12-22T12:06:16;2.83;;;2.55;;
35693;SDS011;21812;55.536;37.664;2023-12-22T12:08:47;4.30;;;3.53;;
35693;SDS011;21812;55.536;37.664;2023-12-22T12:11:14;3.78;;;2.70;;
35693;SDS011;21812;55.536;37.664;2023-12-22T12:13:41;5.00;;;2.72;;
35693;SDS011;21812;55.536;37.664;2023-12-22T12:16:10;4.15;;;3.13;;
35693;SDS011;21812;55.536;37.664;2023-12-22T12:18:40;3.85;;;3.03;;
35693;SDS011;21812;55.536;37.664;2023-12-22T12:21:08;4.18;;;3.45;;
35693;SDS011;21812;55.536;37.664;2023-12-22T12:23:34;6.22;;;4.63;;
35693;SDS011;21812;55.536;37.664;2023-12-22T12:26:00;6.40;;;5.13;;
35693;SDS011;21812;55.536;37.664;2023-12-22T12:28:29;6.68;;;5.70;;
35693;SDS011;21812;55.536;37.664;2023-12-22T12:30:57;9.52;;;5.13;;
35693;SDS011;21812;55.536;37.664;2023-12-22T12:33:25;7.80;;;5.53;;
35693;SDS011;21812;55.536;37.664;2023-12-22T12:35:52;7.30;;;5.97;;
35693;SDS011;21812;55.536;37.664;2023-12-22T12:38:21;8.90;;;6.13;;
35693;SDS011;21812;55.536;37.664;2023-12-22T12:40:53;5.95;;;4.63;;
35693;SDS011;21812;55.536;37.664;2023-12-22T12:43:22;8.52;;;5.75;;
35693;SDS011;21812;55.536;37.664;2023-12-22T12:45:47;10.27;;;6.28;;
35693;SDS011;21812;55.536;37.664;2023-12-22T12:48:15;9.75;;;6.40;;
35693;SDS011;21812;55.536;37.664;2023-12-22T12:50:43;8.25;;;6.38;;
35693;SDS011;21812;55.536;37.664;2023-12-22T12:53:09;6.75;;;5.78;;
35693;SDS011;21812;55.536;37.664;2023-12-22T12:55:35;10.40;;;5.95;;
35693;SDS011;21812;55.536;37.664;2023-12-22T12:58:01;10.20;;;6.97;;
35693;SDS011;21812;55.536;37.664;2023-12-22T13:00:27;9.82;;;5.85;;
35693;SDS011;21812;55.536;37.664;2023-12-22T13:02:54;9.00;;;6.40;;
35693;SDS011;21812;55.536;37.664;2023-12-22T13:05:22;7.82;;;6.13;;
35693;SDS011;21812;55.536;37.664;2023-12-22T13:07:48;10.25;;;6.82;;
35693;SDS011;21812;55.536;37.664;2023-12-22T13:10:24;11.23;;;6.55;;
35693;SDS011;21812;55.536;37.664;2023-12-22T13:12:51;10.85;;;7.70;;
35693;SDS011;21812;55.536;37.664;2023-12-22T13:15:20;11.00;;;6.45;;
35693;SDS011;21812;55.536;37.664;2023-12-22T13:17:47;10.50;;;6.53;;
35693;SDS011;21812;55.536;37.664;2023-12-22T13:20:13;10.75;;;6.60;;
35693;SDS011;21812;55.536;37.664;2023-12-22T13:22:39;13.13;;;7.25;;
35693;SDS011;21812;55.536;37.664;2023-12-22T13:25:05;9.77;;;5.80;;
35693;SDS011;21812;55.536;37.664;2023-12-22T13:27:31;12.18;;;6.35;;
35693;SDS011;21812;55.536;37.664;2023-12-22T13:29:57;13.45;;;7.05;;
35693;SDS011;21812;55.536;37.664;2023-12-22T13:32:22;24.85;;;13.80;;
35693;SDS011;21812;55.536;37.664;2023-12-22T13:34:58;12.32;;;7.10;;
35693;SDS011;21812;55.536;37.664;2023-12-22T13:37:24;11.80;;;6.65;;
35693;SDS011;21812;55.536;37.664;2023-12-22T13:39:52;14.35;;;8.85;;
35693;SDS011;21812;55.536;37.664;2023-12-22T13:42:19;10.20;;;7.28;;
35693;SDS011;21812;55.536;37.664;2023-12-22T13:44:47;11.25;;;8.02;;
35693;SDS011;21812;55.536;37.664;2023-12-22T13:47:18;15.25;;;7.38;;
35693;SDS011;21812;55.536;37.664;2023-12-22T13:49:45;9.05;;;6.47;;
35693;SDS011;21812;55.536;37.664;2023-12-22T13:52:27;9.15;;;7.13;;
35693;SDS011;21812;55.536;37.664;2023-12-22T13:54:54;8.27;;;6.30;;
35693;SDS011;21812;55.536;37.664;2023-12-22T13:57:22;10.63;;;6.60;;
35693;SDS011;21812;55.536;37.664;2023-12-22T13:59:48;9.82;;;6.75;;
35693;SDS011;21812;55.536;37.664;2023-12-22T14:02:14;9.15;;;5.93;;
35693;SDS011;21812;55.536;37.664;2023-12-22T14:04:40;9.52;;;6.00;;
35693;SDS011;21812;55.536;37.664;2023-12-22T14:07:06;11.10;;;7.22;;
35693;SDS011;21812;55.536;37.664;2023-12-22T14:09:32;11.00;;;6.65;;
35693;SDS011;21812;55.536;37.664;2023-12-22T14:11:59;9.80;;;6.60;;
35693;SDS011;21812;55.536;37.664;2023-12-22T14:14:25;10.40;;;6.15;;
35693;SDS011;21812;55.536;37.664;2023-12-22T14:16:51;12.10;;;7.97;;
35693;SDS011;21812;55.536;37.664;2023-12-22T14:19:17;11.05;;;6.75;;
35693;SDS011;21812;55.536;37.664;2023-12-22T14:21:43;9.02;;;5.78;;
35693;SDS011;21812;55.536;37.664;2023-12-22T14:24:08;9.05;;;6.18;;
35693;SDS011;21812;55.536;37.664;2023-12-22T14:26:51;13.40;;;8.48;;
35693;SDS011;21812;55.536;37.664;2023-12-22T14:29:17;11.03;;;6.50;;
35693;SDS011;21812;55.536;37.664;2023-12-22T14:31:43;10.43;;;6.68;;
35693;SDS011;21812;55.536;37.664;2023-12-22T14:34:09;9.68;;;5.93;;
35693;SDS011;21812;55.536;37.664;2023-12-22T14:36:38;8.45;;;5.93;;
35693;SDS011;21812;55.536;37.664;2023-12-22T14:39:03;11.75;;;8.15;;
35693;SDS011;21812;55.536;37.664;2023-12-22T14:41:30;8.05;;;5.30;;
35693;SDS011;21812;55.536;37.664;2023-12-22T14:43:56;12.27;;;8.15;;
35693;SDS011;21812;55.536;37.664;2023-12-22T14:46:22;9.98;;;6.32;;
35693;SDS011;21812;55.536;37.664;2023-12-22T14:48:47;10.27;;;6.97;;